Terminal Aerodrome Forecast
Issued by NWS

Home | Current Version | Previous Version | Text Only | Print | Product List | Glossary Off
Versions: 1 2 3 4 5 6 7 8 9 10 11 12 13 14 15 16 17 18 19 20 21 22 23 24 25

000
FTUS43 KLOT 250900 AAA
TAFDPA
TAF AMD
KDPA 250904Z 2509/2606 26012KT P6SM SCT014 OVC025
     FM251300 22012G19KT P6SM BKN020
     FM251900 20013G20KT P6SM FEW025 BKN200
     FM260000 19012KT P6SM BKN200=

USA.gov is the U.S. government's official web portal to all federal, state and local government web resources and services.